Time;durP1;ratioP1;P1;durP2;ratioP2;P2;SDS_P1;SDS_P2;PMS_P1;PMS_P2;Temp;Humidity;BMP_temperature;BMP_pressure;BME280_temperature;BME280_humidity;BME280_pressure;Samples;Min_cycle;Max_cycle;Signal;HPM_P1;HPM_P2
2023/08/20 00:00:18;;;;;;;;;;;;;;;-144.99;nan;52395.09;4953527;28;20099;-66
2023/08/20 00:02:46;;;;;;;;;;;;;;;-144.99;nan;52409.38;4970641;28;19972;-66
2023/08/20 00:05:15;;;;;;;;;;;;;;;-144.99;nan;52366.56;4971763;28;20248;-66
2023/08/20 00:07:42;;;;;;;;;;;;;;;-144.99;nan;52388.97;4975400;28;19953;-65
2023/08/20 00:10:09;;;;;;;;;;;;;;;-144.99;nan;52386.94;4974988;28;20043;-66
2023/08/20 00:12:36;;;;;;;;;;;;;;;-144.99;nan;52407.31;4971272;28;19965;-65
2023/08/20 00:15:05;;;;;;;;;;;;;;;-144.99;nan;52395.09;4971850;28;19956;-63
2023/08/20 00:17:32;;;;;;;;;;;;;;;-144.99;nan;52395.09;4968373;28;19949;-63
2023/08/20 00:19:59;;;;;;;;;;;;;;;-144.99;nan;52399.19;4969646;28;19958;-63
2023/08/20 00:22:26;;;;;;;;;;;;;;;-144.99;nan;52388.97;4967183;28;20400;-63
2023/08/20 00:24:53;;;;;;;;;;;;;;;-144.99;nan;52413.44;4968060;28;19950;-63
2023/08/20 00:27:20;;;;;;;;;;;;;;;-144.99;nan;52417.53;4969294;28;19977;-63
2023/08/20 00:29:46;;;;;;;;;;;;;;;-144.99;nan;52388.97;4969480;28;20052;-64
2023/08/20 00:32:15;;;;;;;;;;;;;;;-144.99;nan;52378.78;4967852;28;19966;-64
2023/08/20 00:34:41;;;;;;;;;;;;;;;-144.99;nan;52399.19;4968947;28;20410;-66
2023/08/20 00:37:08;;;;;;;;;;;;;;;-144.99;nan;52403.25;4968514;28;19946;-64
2023/08/20 00:39:34;;;;;;;;;;;;;;;-144.99;nan;52380.84;4969552;28;20371;-65
2023/08/20 00:42:01;;;;;;;;;;;;;;;-144.99;nan;52374.72;4968143;28;21064;-65
2023/08/20 00:44:27;;;;;;;;;;;;;;;-144.99;nan;52384.91;4969483;28;20046;-65
2023/08/20 00:46:54;;;;;;;;;;;;;;;-144.99;nan;52435.88;4972084;28;20281;-65
2023/08/20 00:49:22;;;;;;;;;;;;;;;-144.99;nan;52407.31;4970077;28;20004;-65
2023/08/20 00:51:49;;;;;;;;;;;;;;;-144.99;nan;52407.31;4971434;28;20067;-65
2023/08/20 00:54:16;;;;;;;;;;;;;;;-144.99;nan;52415.47;4977849;28;20386;-65
2023/08/20 00:56:42;;;;;;;;;;;;;;;-144.99;nan;52407.31;4972523;28;19964;-65
2023/08/20 00:59:09;;;;;;;;;;;;;;;-144.99;nan;52395.09;4972432;28;19958;-65
2023/08/20 01:01:36;;;;;;;;;;;;;;;-144.99;nan;52382.88;4972287;28;20343;-65
2023/08/20 01:04:02;;;;;;;;;;;;;;;-144.99;nan;52393.06;4971830;28;20002;-65
2023/08/20 01:06:34;;;;;;;;;;;;;;;-144.99;nan;52399.19;4972291;28;20430;-65
2023/08/20 01:09:04;;;;;;;;;;;;;;;-144.99;nan;52439.94;4972588;28;19989;-67
2023/08/20 01:11:34;;;;;;;;;;;;;;;-144.99;nan;52415.47;4972515;28;19974;-65
2023/08/20 01:14:01;;;;;;;;;;;;;;;-144.99;nan;52399.19;4972695;28;20475;-65
2023/08/20 01:16:27;;;;;;;;;;;;;;;-144.99;nan;52427.72;4962621;28;19992;-65
2023/08/20 01:18:54;;;;;;;;;;;;;;;-144.99;nan;52439.94;4972358;28;20068;-65
2023/08/20 01:21:24;;;;;;;;;;;;;;;-144.99;nan;52407.31;4972469;28;19950;-64
2023/08/20 01:24:07;;;;;;;;;;;;;;;-144.99;nan;52431.78;4970276;28;20075;-67
2023/08/20 01:26:41;;;;;;;;;;;;;;;-144.99;nan;52395.09;4966309;28;20013;-68
2023/08/20 01:29:09;;;;;;;;;;;;;;;-144.99;nan;52407.31;4969487;28;19999;-68
2023/08/20 01:31:36;;;;;;;;;;;;;;;-144.99;nan;52395.09;4972358;28;20004;-69
2023/08/20 01:34:03;;;;;;;;;;;;;;;-144.99;nan;52407.31;4971180;28;19955;-68
2023/08/20 01:36:30;;;;;;;;;;;;;;;-144.99;nan;52411.41;4973058;28;20002;-69
2023/08/20 01:38:56;;;;;;;;;;;;;;;-144.99;nan;52415.47;4971116;28;20360;-68
2023/08/20 01:41:23;;;;;;;;;;;;;;;-144.99;nan;52411.41;4966252;28;20007;-69
2023/08/20 01:43:49;;;;;;;;;;;;;;;-144.99;nan;52382.88;4970643;28;20409;-68
2023/08/20 01:46:17;;;;;;;;;;;;;;;-144.99;nan;52421.59;4976226;28;20095;-67
2023/08/20 01:48:43;;;;;;;;;;;;;;;-144.99;nan;52407.31;4970131;28;20396;-67
2023/08/20 01:53:44;;;;;;;;;;;;;;;-144.99;nan;52407.31;5005066;28;19996;-64
2023/08/20 01:56:12;;;;;;;;;;;;;;;-144.99;nan;52411.41;5009298;28;20011;-65
2023/08/20 01:58:38;;;;;;;;;;;;;;;-144.99;nan;52415.47;5010106;28;20054;-65
2023/08/20 02:01:04;;;;;;;;;;;;;;;-144.99;nan;52423.63;5000528;28;19988;-65
2023/08/20 02:03:32;;;;;;;;;;;;;;;-144.99;nan;52448.09;5007126;28;20006;-65
2023/08/20 02:05:59;;;;;;;;;;;;;;;-144.99;nan;52395.09;4991764;28;20037;-66
2023/08/20 02:08:25;;;;;;;;;;;;;;;-144.99;nan;52456.25;5007027;28;19948;-66
2023/08/20 02:11:00;;;;;;;;;;;;;;;-144.99;nan;52448.09;5005081;28;20048;-65
2023/08/20 02:13:26;;;;;;;;;;;;;;;-144.99;nan;52382.88;5004316;28;20003;-66
2023/08/20 02:15:58;;;;;;;;;;;;;;;-144.99;nan;52407.31;5000253;28;20404;-68
2023/08/20 02:18:24;;;;;;;;;;;;;;;-144.99;nan;52427.72;5004944;28;20267;-66
2023/08/20 02:20:52;;;;;;;;;;;;;;;-144.99;nan;52403.25;5005571;28;20471;-66
2023/08/20 02:23:18;;;;;;;;;;;;;;;-144.99;nan;52431.78;5003747;28;20027;-67
2023/08/20 02:25:45;;;;;;;;;;;;;;;-144.99;nan;52415.47;5002582;28;20025;-65
2023/08/20 02:28:11;;;;;;;;;;;;;;;-144.99;nan;52380.84;5009273;28;20010;-65
2023/08/20 02:30:40;;;;;;;;;;;;;;;-144.99;nan;52419.56;5009411;28;20381;-67
2023/08/20 02:33:07;;;;;;;;;;;;;;;-144.99;nan;52397.13;5003868;28;19994;-67
2023/08/20 02:35:33;;;;;;;;;;;;;;;-144.99;nan;52439.94;4998423;28;20038;-67
2023/08/20 02:38:01;;;;;;;;;;;;;;;-144.99;nan;52399.19;4996558;28;19946;-67
2023/08/20 02:40:28;;;;;;;;;;;;;;;-144.99;nan;52407.31;5006668;28;19969;-67
2023/08/20 02:42:54;;;;;;;;;;;;;;;-144.99;nan;52415.47;5009591;28;20015;-67
2023/08/20 02:45:21;;;;;;;;;;;;;;;-144.99;nan;52403.25;5002048;28;20364;-67
2023/08/20 02:47:47;;;;;;;;;;;;;;;-144.99;nan;52421.59;5006698;28;20286;-66
2023/08/20 02:50:14;;;;;;;;;;;;;;;-144.99;nan;52407.31;5003947;28;19992;-67
2023/08/20 02:52:40;;;;;;;;;;;;;;;-144.99;nan;52403.25;5007811;28;19969;-66
2023/08/20 02:55:09;;;;;;;;;;;;;;;-144.99;nan;52444.03;5003947;28;19973;-68
2023/08/20 02:57:35;;;;;;;;;;;;;;;-144.99;nan;52378.78;5010502;28;20482;-67
2023/08/20 03:00:02;;;;;;;;;;;;;;;-144.99;nan;52407.31;5007122;28;20154;-67
2023/08/20 03:02:28;;;;;;;;;;;;;;;-144.99;nan;52419.56;5006727;28;20397;-74
2023/08/20 03:04:56;;;;;;;;;;;;;;;-144.99;nan;52425.66;5001759;28;20084;-64
2023/08/20 03:07:23;;;;;;;;;;;;;;;-144.99;nan;52431.78;5004109;28;19958;-63
2023/08/20 03:09:49;;;;;;;;;;;;;;;-144.99;nan;52391.03;5009241;28;20383;-63
2023/08/20 03:12:17;;;;;;;;;;;;;;;-144.99;nan;52419.56;4998026;28;20003;-63
2023/08/20 03:14:43;;;;;;;;;;;;;;;-144.99;nan;52382.88;5007811;28;20384;-67
2023/08/20 03:17:10;;;;;;;;;;;;;;;-144.99;nan;52413.44;5009487;28;20022;-67
2023/08/20 03:19:36;;;;;;;;;;;;;;;-144.99;nan;52393.06;5000489;28;19962;-66
2023/08/20 03:22:03;;;;;;;;;;;;;;;-144.99;nan;52395.09;4995264;28;20441;-66
2023/08/20 03:24:29;;;;;;;;;;;;;;;-144.99;nan;52439.94;5007072;28;19999;-65
2023/08/20 03:26:56;;;;;;;;;;;;;;;-144.99;nan;52395.09;5005407;28;20050;-65
2023/08/20 03:29:24;;;;;;;;;;;;;;;-144.99;nan;52407.31;5001203;28;20052;-65
2023/08/20 03:31:50;;;;;;;;;;;;;;;-144.99;nan;52425.66;5009116;28;20353;-62
2023/08/20 03:34:16;;;;;;;;;;;;;;;-144.99;nan;52407.31;5001437;28;19946;-62
2023/08/20 03:36:43;;;;;;;;;;;;;;;-144.99;nan;52374.72;4997925;28;19996;-63
2023/08/20 03:39:10;;;;;;;;;;;;;;;-144.99;nan;52439.94;5002921;28;19946;-64
2023/08/20 03:41:36;;;;;;;;;;;;;;;-144.99;nan;52444.03;5003425;28;20015;-63
2023/08/20 03:44:04;;;;;;;;;;;;;;;-144.99;nan;52399.19;4998918;28;20022;-65
2023/08/20 03:46:31;;;;;;;;;;;;;;;-144.99;nan;52421.59;5004645;28;19954;-71
2023/08/20 03:48:58;;;;;;;;;;;;;;;-144.99;nan;52433.81;5002933;28;19984;-72
2023/08/20 03:51:24;;;;;;;;;;;;;;;-144.99;nan;52429.75;5006252;28;20364;-66
2023/08/20 03:53:51;;;;;;;;;;;;;;;-144.99;nan;52399.19;4998391;28;20039;-67
2023/08/20 03:56:17;;;;;;;;;;;;;;;-144.99;nan;52411.41;5004947;28;20058;-67
2023/08/20 03:58:44;;;;;;;;;;;;;;;-144.99;nan;52403.25;5001733;28;20049;-65
2023/08/20 04:01:10;;;;;;;;;;;;;;;-144.99;nan;52415.47;4997472;28;19971;-67
2023/08/20 04:03:38;;;;;;;;;;;;;;;-144.99;nan;52419.56;5001310;28;19991;-67
2023/08/20 04:06:04;;;;;;;;;;;;;;;-144.99;nan;52407.31;4997471;28;19944;-64
2023/08/20 04:08:31;;;;;;;;;;;;;;;-144.99;nan;52423.63;5002018;28;20042;-64
2023/08/20 04:10:57;;;;;;;;;;;;;;;-144.99;nan;52417.53;5004595;28;19988;-63
2023/08/20 04:13:24;;;;;;;;;;;;;;;-144.99;nan;52437.91;5004436;28;20435;-62
2023/08/20 04:15:50;;;;;;;;;;;;;;;-144.99;nan;52407.31;5005919;28;19946;-62
2023/08/20 04:18:17;;;;;;;;;;;;;;;-144.99;nan;52407.31;4992973;28;19944;-60
2023/08/20 04:20:45;;;;;;;;;;;;;;;-144.99;nan;52419.56;4995302;28;20051;-63
2023/08/20 04:23:11;;;;;;;;;;;;;;;-144.99;nan;52411.41;5001871;28;20418;-62
2023/08/20 04:25:38;;;;;;;;;;;;;;;-144.99;nan;52407.31;5000907;28;20458;-63
2023/08/20 04:28:05;;;;;;;;;;;;;;;-144.99;nan;52456.25;5002782;28;19942;-64
2023/08/20 04:30:31;;;;;;;;;;;;;;;-144.99;nan;52427.72;5006059;28;20102;-62
2023/08/20 04:32:57;;;;;;;;;;;;;;;-144.99;nan;52444.03;4997919;28;20439;-61
2023/08/20 04:35:24;;;;;;;;;;;;;;;-144.99;nan;52393.06;5001369;28;20489;-61
2023/08/20 04:37:52;;;;;;;;;;;;;;;-144.99;nan;52399.19;5003825;28;20007;-69
2023/08/20 04:40:18;;;;;;;;;;;;;;;-144.99;nan;52409.38;5005898;28;20019;-68
2023/08/20 04:42:45;;;;;;;;;;;;;;;-144.99;nan;52388.97;5003358;28;19963;-68
2023/08/20 04:45:11;;;;;;;;;;;;;;;-144.99;nan;52417.53;5004109;28;20049;-68
2023/08/20 04:47:38;;;;;;;;;;;;;;;-144.99;nan;52423.63;5002520;28;20331;-66
2023/08/20 04:50:06;;;;;;;;;;;;;;;-144.99;nan;52431.78;5004766;28;19999;-68
2023/08/20 04:52:33;;;;;;;;;;;;;;;-144.99;nan;52395.09;4981806;28;20058;-68
2023/08/20 04:55:01;;;;;;;;;;;;;;;-144.99;nan;52444.03;5003229;28;20035;-68
2023/08/20 04:57:27;;;;;;;;;;;;;;;-144.99;nan;52415.47;4998144;28;19952;-68
2023/08/20 04:59:54;;;;;;;;;;;;;;;-144.99;nan;52472.56;5008209;28;20049;-67
2023/08/20 05:02:20;;;;;;;;;;;;;;;-144.99;nan;52397.13;5002727;28;20453;-68
2023/08/20 05:04:46;;;;;;;;;;;;;;;-144.99;nan;52456.25;5004420;28;19954;-66
2023/08/20 05:07:14;;;;;;;;;;;;;;;-144.99;nan;52378.78;4996307;28;20021;-70
2023/08/20 05:09:40;;;;;;;;;;;;;;;-144.99;nan;52391.03;5008073;28;20027;-68
2023/08/20 05:12:08;;;;;;;;;;;;;;;-144.99;nan;52407.31;4992323;28;20055;-66
2023/08/20 05:14:35;;;;;;;;;;;;;;;-144.99;nan;52415.47;4993557;28;19992;-68
2023/08/20 05:17:02;;;;;;;;;;;;;;;-144.99;nan;52391.03;4993149;28;20057;-69
2023/08/20 05:19:29;;;;;;;;;;;;;;;-144.99;nan;52382.88;4992341;28;19954;-61
2023/08/20 05:21:58;;;;;;;;;;;;;;;-144.99;nan;52374.72;5002679;28;20019;-64
2023/08/20 05:24:25;;;;;;;;;;;;;;;-144.99;nan;52407.31;5001186;28;19950;-64
2023/08/20 05:27:04;;;;;;;;;;;;;;;-144.99;nan;52431.78;4998322;28;20056;-64
2023/08/20 05:29:32;;;;;;;;;;;;;;;-144.99;nan;52395.09;5006928;28;20316;-63
2023/08/20 05:31:58;;;;;;;;;;;;;;;-144.99;nan;52399.19;5001653;28;20002;-66
2023/08/20 05:34:25;;;;;;;;;;;;;;;-144.99;nan;52395.09;5005676;28;19942;-66
2023/08/20 05:36:51;;;;;;;;;;;;;;;-144.99;nan;52378.78;5008969;28;19954;-69
2023/08/20 05:39:18;;;;;;;;;;;;;;;-144.99;nan;52423.63;5010583;28;20464;-65
2023/08/20 05:41:44;;;;;;;;;;;;;;;-144.99;nan;52354.34;5007976;28;20081;-65
2023/08/20 05:44:11;;;;;;;;;;;;;;;-144.99;nan;52423.63;5001411;28;20005;-64
2023/08/20 05:46:40;;;;;;;;;;;;;;;-144.99;nan;52382.88;5002768;28;20247;-66
2023/08/20 05:49:07;;;;;;;;;;;;;;;-144.99;nan;52419.56;5008715;28;19942;-66
2023/08/20 05:51:33;;;;;;;;;;;;;;;-144.99;nan;52382.88;5006298;28;20468;-64
2023/08/20 05:54:00;;;;;;;;;;;;;;;-144.99;nan;52386.94;5010404;28;20039;-63
2023/08/20 05:56:26;;;;;;;;;;;;;;;-144.99;nan;52391.03;5001476;28;19992;-64
2023/08/20 05:58:53;;;;;;;;;;;;;;;-144.99;nan;52399.19;5003139;28;20005;-62
2023/08/20 06:01:19;;;;;;;;;;;;;;;-144.99;nan;52366.56;5007872;28;19965;-62
2023/08/20 06:03:47;;;;;;;;;;;;;;;-144.99;nan;52407.31;4987318;28;19956;-62
2023/08/20 06:06:13;;;;;;;;;;;;;;;-144.99;nan;52374.72;4999206;28;20000;-70
2023/08/20 06:08:40;;;;;;;;;;;;;;;-144.99;nan;52439.94;5004588;28;19991;-71
2023/08/20 06:11:06;;;;;;;;;;;;;;;-144.99;nan;52399.19;4983585;28;20032;-70
2023/08/20 06:13:33;;;;;;;;;;;;;;;-144.99;nan;52411.41;5008398;28;19960;-70
2023/08/20 06:15:59;;;;;;;;;;;;;;;-144.99;nan;52395.09;5006958;28;20040;-72
2023/08/20 06:18:26;;;;;;;;;;;;;;;-144.99;nan;52395.09;5005235;28;20414;-70
2023/08/20 06:20:54;;;;;;;;;;;;;;;-144.99;nan;52395.09;5005169;28;20026;-73
2023/08/20 06:23:20;;;;;;;;;;;;;;;-144.99;nan;52342.09;5006117;28;19967;-75
2023/08/20 06:25:47;;;;;;;;;;;;;;;-144.99;nan;52370.63;5001566;28;20029;-73
2023/08/20 06:28:13;;;;;;;;;;;;;;;-144.99;nan;52382.88;5005205;28;20433;-74
2023/08/20 06:30:40;;;;;;;;;;;;;;;-144.99;nan;52362.50;5001275;28;19947;-64
2023/08/20 06:33:07;;;;;;;;;;;;;;;-144.99;nan;52366.56;5005336;28;20485;-64
2023/08/20 06:35:34;;;;;;;;;;;;;;;-144.99;nan;52378.78;5006761;28;20056;-67
2023/08/20 06:38:02;;;;;;;;;;;;;;;-144.99;nan;52393.06;5007242;28;19946;-69
2023/08/20 06:40:28;;;;;;;;;;;;;;;-144.99;nan;52399.19;5007722;28;20019;-69
2023/08/20 06:42:55;;;;;;;;;;;;;;;-144.99;nan;52382.88;5010710;28;19969;-69
2023/08/20 06:45:21;;;;;;;;;;;;;;;-144.99;nan;52362.50;5006314;28;20381;-65
2023/08/20 06:47:47;;;;;;;;;;;;;;;-144.99;nan;52395.09;5005578;28;19948;-67
2023/08/20 06:50:14;;;;;;;;;;;;;;;-144.99;nan;52352.28;5001464;28;20377;-65
2023/08/20 06:52:40;;;;;;;;;;;;;;;-144.99;nan;52333.94;5002195;28;20431;-64
2023/08/20 06:55:09;;;;;;;;;;;;;;;-144.99;nan;52391.03;5002636;28;19947;-67
2023/08/20 06:57:35;;;;;;;;;;;;;;;-144.99;nan;52407.31;5003602;28;19948;-66
2023/08/20 07:00:03;;;;;;;;;;;;;;;-144.99;nan;52366.56;5002618;28;19951;-68
2023/08/20 07:02:30;;;;;;;;;;;;;;;-144.99;nan;52358.41;5001418;28;19968;-67
2023/08/20 07:04:56;;;;;;;;;;;;;;;-144.99;nan;52333.94;5006554;28;20033;-67
2023/08/20 07:07:23;;;;;;;;;;;;;;;-144.99;nan;52366.56;5009779;28;19987;-70
2023/08/20 07:09:49;;;;;;;;;;;;;;;-144.99;nan;52366.56;5008524;28;20074;-67
2023/08/20 07:12:17;;;;;;;;;;;;;;;-144.99;nan;52382.88;5004456;28;20073;-67
2023/08/20 07:14:43;;;;;;;;;;;;;;;-144.99;nan;52329.88;4998716;28;19955;-67
2023/08/20 07:17:10;;;;;;;;;;;;;;;-144.99;nan;52342.09;5009584;28;19953;-66
2023/08/20 07:19:37;;;;;;;;;;;;;;;-144.99;nan;52378.78;5009067;28;19986;-67
2023/08/20 07:22:04;;;;;;;;;;;;;;;-144.99;nan;52331.91;5007551;28;20007;-66
2023/08/20 07:24:34;;;;;;;;;;;;;;;-144.99;nan;52340.06;4996475;28;20366;-65
2023/08/20 07:27:02;;;;;;;;;;;;;;;-144.99;nan;52323.75;5001789;28;19961;-64
2023/08/20 07:29:30;;;;;;;;;;;;;;;-144.99;nan;52354.34;4996591;28;19948;-66
2023/08/20 07:31:57;;;;;;;;;;;;;;;-144.99;nan;52325.81;5006239;28;20067;-66
2023/08/20 07:34:23;;;;;;;;;;;;;;;-144.99;nan;52327.84;5003771;28;20001;-68
2023/08/20 07:36:50;;;;;;;;;;;;;;;-144.99;nan;52325.81;5007578;28;19993;-68
2023/08/20 07:39:16;;;;;;;;;;;;;;;-144.99;nan;52329.88;4998729;28;19994;-67
2023/08/20 07:41:43;;;;;;;;;;;;;;;-144.99;nan;52338.03;5005841;28;20035;-67
2023/08/20 07:44:09;;;;;;;;;;;;;;;-144.99;nan;52342.09;5003684;28;19964;-67
2023/08/20 07:46:37;;;;;;;;;;;;;;;-144.99;nan;52329.88;5005707;28;19949;-68
2023/08/20 07:49:04;;;;;;;;;;;;;;;-144.99;nan;52309.50;5004583;28;20011;-68
2023/08/20 07:51:30;;;;;;;;;;;;;;;-144.99;nan;52342.09;5008343;28;19958;-66
2023/08/20 07:53:59;;;;;;;;;;;;;;;-144.99;nan;52338.03;5002996;28;19951;-67
2023/08/20 07:56:25;;;;;;;;;;;;;;;-144.99;nan;52342.09;5004374;28;19946;-67
2023/08/20 07:58:52;;;;;;;;;;;;;;;-144.99;nan;52350.25;5006305;28;20040;-66
2023/08/20 08:01:18;;;;;;;;;;;;;;;-144.99;nan;52276.88;5008060;28;20027;-67
2023/08/20 08:03:46;;;;;;;;;;;;;;;-144.99;nan;52285.03;5007048;28;19960;-67
2023/08/20 08:06:13;;;;;;;;;;;;;;;-144.99;nan;52329.88;5007819;28;20017;-67
2023/08/20 08:08:39;;;;;;;;;;;;;;;-144.99;nan;52338.03;5002115;28;20043;-67
2023/08/20 08:11:06;;;;;;;;;;;;;;;-144.99;nan;52313.56;5005176;28;19993;-67
2023/08/20 08:13:32;;;;;;;;;;;;;;;-144.99;nan;52303.38;5000999;28;19973;-67
2023/08/20 08:15:59;;;;;;;;;;;;;;;-144.99;nan;52325.81;5003346;28;19990;-68
2023/08/20 08:18:25;;;;;;;;;;;;;;;-144.99;nan;52309.50;5001569;28;19973;-70
2023/08/20 08:20:53;;;;;;;;;;;;;;;-144.99;nan;52301.34;5003142;28;19947;-69
2023/08/20 08:23:20;;;;;;;;;;;;;;;-144.99;nan;52293.19;5003160;28;20007;-68
2023/08/20 08:25:46;;;;;;;;;;;;;;;-144.99;nan;52317.66;5001052;28;19950;-67
2023/08/20 08:28:13;;;;;;;;;;;;;;;-144.99;nan;52313.56;4997403;28;20394;-73
2023/08/20 08:30:40;;;;;;;;;;;;;;;-144.99;nan;52313.56;5001543;28;19941;-73
2023/08/20 08:33:07;;;;;;;;;;;;;;;-144.99;nan;52293.19;5000993;28;19971;-73
2023/08/20 08:35:33;;;;;;;;;;;;;;;-144.99;nan;52297.25;5002527;28;20003;-65
2023/08/20 08:38:03;;;;;;;;;;;;;;;-144.99;nan;52309.50;4991364;28;19952;-65
2023/08/20 08:40:30;;;;;;;;;;;;;;;-144.99;nan;52301.34;4994969;28;20314;-65
2023/08/20 08:42:57;;;;;;;;;;;;;;;-144.99;nan;52309.50;4996854;28;20005;-65
2023/08/20 08:45:24;;;;;;;;;;;;;;;-144.99;nan;52264.66;5000588;28;20453;-65
2023/08/20 08:47:50;;;;;;;;;;;;;;;-144.99;nan;52289.13;5004343;28;19987;-63
2023/08/20 08:50:17;;;;;;;;;;;;;;;-144.99;nan;52268.72;4999133;28;19972;-65
2023/08/20 08:52:45;;;;;;;;;;;;;;;-144.99;nan;52266.69;4992478;28;20037;-64
2023/08/20 08:55:13;;;;;;;;;;;;;;;-144.99;nan;52268.72;5006480;28;19996;-65
2023/08/20 08:57:40;;;;;;;;;;;;;;;-144.99;nan;52276.88;4989151;28;19996;-65
2023/08/20 09:00:07;;;;;;;;;;;;;;;-144.99;nan;52264.66;5004712;28;20108;-64
2023/08/20 09:02:33;;;;;;;;;;;;;;;-144.99;nan;52248.34;4995403;28;19991;-66
2023/08/20 09:05:00;;;;;;;;;;;;;;;-144.99;nan;52270.78;5006964;28;20007;-64
2023/08/20 09:07:26;;;;;;;;;;;;;;;-144.99;nan;52238.16;5008482;28;19986;-64
2023/08/20 09:12:36;;;;;;;;;;;;;;;-144.99;nan;52260.56;5001883;28;19984;-68
2023/08/20 09:15:02;;;;;;;;;;;;;;;-144.99;nan;52264.66;4991654;28;20062;-67
2023/08/20 09:17:29;;;;;;;;;;;;;;;-144.99;nan;52264.66;4991898;28;20416;-67
2023/08/20 09:19:57;;;;;;;;;;;;;;;-144.99;nan;52264.66;4993205;28;20421;-67
2023/08/20 09:22:24;;;;;;;;;;;;;;;-144.99;nan;52240.19;4990482;28;19984;-67
2023/08/20 09:24:54;;;;;;;;;;;;;;;-144.99;nan;52252.44;4999082;28;19955;-67
2023/08/20 09:27:20;;;;;;;;;;;;;;;-144.99;nan;52305.41;4989953;28;20224;-67
2023/08/20 09:29:50;;;;;;;;;;;;;;;-144.99;nan;52264.66;4989274;28;19953;-68
2023/08/20 09:32:17;;;;;;;;;;;;;;;-144.99;nan;52203.50;4987175;28;19990;-68
2023/08/20 09:34:43;;;;;;;;;;;;;;;-144.99;nan;52295.22;4986537;28;20546;-68
2023/08/20 09:37:10;;;;;;;;;;;;;;;-144.99;nan;52232.03;4987386;28;19944;-68
2023/08/20 09:39:37;;;;;;;;;;;;;;;-144.99;nan;52236.13;4989349;28;19953;-68
2023/08/20 09:42:05;;;;;;;;;;;;;;;-144.99;nan;52244.28;4989164;28;20423;-68
2023/08/20 09:44:33;;;;;;;;;;;;;;;-144.99;nan;52272.81;4989442;28;20386;-68
2023/08/20 09:47:02;;;;;;;;;;;;;;;-144.99;nan;52215.75;4988899;28;19954;-70
2023/08/20 09:49:30;;;;;;;;;;;;;;;-144.99;nan;52219.81;4986069;28;20488;-68
2023/08/20 09:51:59;;;;;;;;;;;;;;;-144.99;nan;52227.97;4990342;28;20026;-68
2023/08/20 09:54:29;;;;;;;;;;;;;;;-144.99;nan;52195.34;4990722;28;19955;-67
2023/08/20 09:56:58;;;;;;;;;;;;;;;-144.99;nan;52244.28;4992354;28;20299;-67
2023/08/20 09:59:25;;;;;;;;;;;;;;;-144.99;nan;52207.59;4993662;28;20463;-67
2023/08/20 10:01:51;;;;;;;;;;;;;;;-144.99;nan;52227.97;4991680;28;20035;-68
2023/08/20 10:04:19;;;;;;;;;;;;;;;-144.99;nan;52223.88;4985448;28;20064;-71
2023/08/20 10:06:46;;;;;;;;;;;;;;;-144.99;nan;52227.97;4987940;28;20392;-71
2023/08/20 10:09:13;;;;;;;;;;;;;;;-144.99;nan;52164.78;4990740;28;20511;-71
2023/08/20 10:11:40;;;;;;;;;;;;;;;-144.99;nan;52195.34;4988505;28;19995;-60
2023/08/20 10:14:07;;;;;;;;;;;;;;;-144.99;nan;52183.13;4987084;28;20479;-60
2023/08/20 10:16:34;;;;;;;;;;;;;;;-144.99;nan;52156.63;4982184;28;19957;-73
2023/08/20 10:19:02;;;;;;;;;;;;;;;-144.99;nan;52170.91;4964134;28;20425;-72
2023/08/20 10:21:30;;;;;;;;;;;;;;;-144.99;nan;52174.97;4976904;28;19948;-73
2023/08/20 10:23:57;;;;;;;;;;;;;;;-144.99;nan;52172.94;4977056;28;19949;-72
2023/08/20 10:26:24;;;;;;;;;;;;;;;-144.99;nan;52162.75;4976149;28;20112;-74
2023/08/20 10:28:50;;;;;;;;;;;;;;;-144.99;nan;52172.94;4979664;28;20979;-73
2023/08/20 10:31:18;;;;;;;;;;;;;;;-144.99;nan;52170.91;4993538;28;19956;-73
2023/08/20 10:33:50;;;;;;;;;;;;;;;-144.99;nan;52134.22;4979401;28;20002;-71
2023/08/20 10:36:18;;;;;;;;;;;;;;;-144.99;nan;52223.88;4979485;28;20483;-73
2023/08/20 10:38:47;;;;;;;;;;;;;;;-144.99;nan;52191.28;4983269;28;20023;-73
2023/08/20 10:41:16;;;;;;;;;;;;;;;-144.99;nan;52158.66;4984262;28;19942;-72
2023/08/20 10:43:47;;;;;;;;;;;;;;;-144.99;nan;52154.59;4986370;28;19967;-73
2023/08/20 10:46:17;;;;;;;;;;;;;;;-144.99;nan;52201.47;4644709;28;10000035;-73
2023/08/20 10:48:44;;;;;;;;;;;;;;;-144.99;nan;52130.13;4988124;28;20361;-72
2023/08/20 10:51:14;;;;;;;;;;;;;;;-144.99;nan;52121.97;4989127;28;20372;-73
2023/08/20 10:53:41;;;;;;;;;;;;;;;-144.99;nan;52113.84;4986769;28;19989;-73
2023/08/20 10:56:18;;;;;;;;;;;;;;;-144.99;nan;52066.97;4982106;28;20403;-72
2023/08/20 10:58:47;;;;;;;;;;;;;;;-144.99;nan;52101.59;4982080;28;20081;-72
2023/08/20 11:01:17;;;;;;;;;;;;;;;-144.99;nan;52048.63;4989657;28;19947;-72
2023/08/20 11:03:44;;;;;;;;;;;;;;;-144.99;nan;52069.00;4986373;28;20593;-72
2023/08/20 11:06:11;;;;;;;;;;;;;;;-144.99;nan;52073.06;4982157;28;20418;-72
2023/08/20 11:08:38;;;;;;;;;;;;;;;-144.99;nan;52056.78;4986747;28;20006;-72
2023/08/20 11:11:04;;;;;;;;;;;;;;;-144.99;nan;52052.69;4994488;28;20005;-72
2023/08/20 11:13:33;;;;;;;;;;;;;;;-144.99;nan;52040.47;4985582;28;19966;-72
2023/08/20 11:15:59;;;;;;;;;;;;;;;-144.99;nan;52048.63;4979936;28;19992;-72
2023/08/20 11:18:26;;;;;;;;;;;;;;;-144.99;nan;52058.81;4982684;28;20058;-72
2023/08/20 11:20:52;;;;;;;;;;;;;;;-144.99;nan;52040.47;4986837;28;19978;-72
2023/08/20 11:23:19;;;;;;;;;;;;;;;-144.99;nan;52048.63;4987085;28;20376;-72
2023/08/20 11:25:45;;;;;;;;;;;;;;;-144.99;nan;51991.56;4993544;28;20071;-73
2023/08/20 11:28:12;;;;;;;;;;;;;;;-144.99;nan;51979.31;4982985;28;20059;-72
2023/08/20 11:30:40;;;;;;;;;;;;;;;-144.99;nan;52046.56;4982090;28;20361;-72
2023/08/20 11:33:06;;;;;;;;;;;;;;;-144.99;nan;52016.00;4963497;28;20006;-73
2023/08/20 11:35:33;;;;;;;;;;;;;;;-144.99;nan;52036.38;4986778;28;19952;-73
2023/08/20 11:38:00;;;;;;;;;;;;;;;-144.99;nan;52032.31;4986789;28;20172;-74
2023/08/20 11:40:26;;;;;;;;;;;;;;;-144.99;nan;52048.63;4983550;28;20092;-72
2023/08/20 11:42:53;;;;;;;;;;;;;;;-144.99;nan;51979.31;4984118;28;19989;-73
2023/08/20 11:45:19;;;;;;;;;;;;;;;-144.99;nan;52011.94;4980686;28;20427;-72
2023/08/20 11:47:47;;;;;;;;;;;;;;;-144.99;nan;51979.31;4965720;28;20010;-72
2023/08/20 11:50:14;;;;;;;;;;;;;;;-144.99;nan;52020.09;4989853;28;19971;-72
2023/08/20 11:52:40;;;;;;;;;;;;;;;-144.99;nan;52048.63;4987266;28;20230;-73
2023/08/20 11:55:07;;;;;;;;;;;;;;;-144.99;nan;51981.38;4986477;28;20075;-73
2023/08/20 11:57:33;;;;;;;;;;;;;;;-144.99;nan;52020.09;4984038;28;19949;-73
2023/08/20 12:00:03;;;;;;;;;;;;;;;-144.99;nan;51995.63;4979915;28;19951;-73
2023/08/20 12:02:30;;;;;;;;;;;;;;;-144.99;nan;51979.31;4977797;28;19960;-73
2023/08/20 12:04:58;;;;;;;;;;;;;;;-144.99;nan;51987.47;4986503;28;19983;-73
2023/08/20 12:07:26;;;;;;;;;;;;;;;-144.99;nan;51979.31;4983654;28;19950;-73
2023/08/20 12:09:53;;;;;;;;;;;;;;;-144.99;nan;52020.09;4982997;28;19950;-72
2023/08/20 12:12:20;;;;;;;;;;;;;;;-144.99;nan;52028.22;4984749;28;19976;-72
2023/08/20 12:14:47;;;;;;;;;;;;;;;-144.99;nan;52009.91;4982039;28;19973;-72
2023/08/20 12:17:13;;;;;;;;;;;;;;;-144.99;nan;52007.84;4982668;28;20002;-72
2023/08/20 12:19:40;;;;;;;;;;;;;;;-144.99;nan;51969.13;4977445;28;19947;-72
2023/08/20 12:22:08;;;;;;;;;;;;;;;-144.99;nan;51995.63;4983320;28;20061;-72
2023/08/20 12:24:35;;;;;;;;;;;;;;;-144.99;nan;51975.25;4982839;28;19953;-72
2023/08/20 12:27:02;;;;;;;;;;;;;;;-144.99;nan;51973.22;4984923;28;20064;-73
2023/08/20 12:29:29;;;;;;;;;;;;;;;-144.99;nan;51977.28;4989220;28;20408;-72
2023/08/20 12:31:55;;;;;;;;;;;;;;;-144.99;nan;52028.22;4986198;28;19972;-72
2023/08/20 12:34:23;;;;;;;;;;;;;;;-144.99;nan;52009.91;4984453;28;19952;-72
2023/08/20 12:36:50;;;;;;;;;;;;;;;-144.99;nan;52007.84;4986210;28;19993;-73
2023/08/20 12:39:18;;;;;;;;;;;;;;;-144.99;nan;52052.69;4984265;28;19947;-71
2023/08/20 12:41:44;;;;;;;;;;;;;;;-144.99;nan;52034.34;4985277;28;19969;-71
2023/08/20 12:44:11;;;;;;;;;;;;;;;-144.99;nan;52040.47;4986005;28;20002;-70
2023/08/20 12:46:37;;;;;;;;;;;;;;;-144.99;nan;52028.22;4969531;28;19957;-71
2023/08/20 12:49:04;;;;;;;;;;;;;;;-144.99;nan;52028.22;4987531;28;20311;-72